sensor_id;sensor_type;location;lat;lon;timestamp;P1;durP1;ratioP1;P2;durP2;ratioP2
68951;SDS011;56000;51.146;17.112;2022-08-21T00:00:33;24.30;;;14.90;;
68951;SDS011;56000;51.146;17.112;2022-08-21T00:03:13;20.90;;;15.00;;
68951;SDS011;56000;51.146;17.112;2022-08-21T00:05:48;19.30;;;14.30;;
68951;SDS011;56000;51.146;17.112;2022-08-21T00:08:21;22.40;;;15.10;;
68951;SDS011;56000;51.146;17.112;2022-08-21T00:10:54;20.80;;;14.40;;
68951;SDS011;56000;51.146;17.112;2022-08-21T00:13:27;24.30;;;15.10;;
68951;SDS011;56000;51.146;17.112;2022-08-21T00:16:00;23.10;;;14.80;;
68951;SDS011;56000;51.146;17.112;2022-08-21T00:18:35;22.50;;;15.20;;
68951;SDS011;56000;51.146;17.112;2022-08-21T00:21:08;24.70;;;15.40;;
68951;SDS011;56000;51.146;17.112;2022-08-21T00:23:42;21.70;;;14.40;;
68951;SDS011;56000;51.146;17.112;2022-08-21T00:26:15;25.40;;;16.00;;
68951;SDS011;56000;51.146;17.112;2022-08-21T00:28:48;28.00;;;16.90;;
68951;SDS011;56000;51.146;17.112;2022-08-21T00:31:20;27.40;;;17.00;;
68951;SDS011;56000;51.146;17.112;2022-08-21T00:33:53;23.40;;;16.40;;
68951;SDS011;56000;51.146;17.112;2022-08-21T00:36:30;25.20;;;16.50;;
68951;SDS011;56000;51.146;17.112;2022-08-21T00:39:03;25.60;;;15.90;;
68951;SDS011;56000;51.146;17.112;2022-08-21T00:41:38;27.50;;;17.30;;
68951;SDS011;56000;51.146;17.112;2022-08-21T00:44:13;23.30;;;14.10;;
68951;SDS011;56000;51.146;17.112;2022-08-21T00:46:46;16.40;;;11.30;;
68951;SDS011;56000;51.146;17.112;2022-08-21T00:49:19;22.40;;;15.50;;
68951;SDS011;56000;51.146;17.112;2022-08-21T00:51:53;25.70;;;15.30;;
68951;SDS011;56000;51.146;17.112;2022-08-21T00:54:30;23.80;;;15.00;;
68951;SDS011;56000;51.146;17.112;2022-08-21T00:57:07;21.60;;;14.00;;
68951;SDS011;56000;51.146;17.112;2022-08-21T00:59:48;20.70;;;13.10;;
68951;SDS011;56000;51.146;17.112;2022-08-21T01:02:23;17.20;;;12.10;;
68951;SDS011;56000;51.146;17.112;2022-08-21T01:04:56;22.20;;;12.70;;
68951;SDS011;56000;51.146;17.112;2022-08-21T01:07:29;27.10;;;14.00;;
68951;SDS011;56000;51.146;17.112;2022-08-21T01:10:02;22.10;;;12.80;;
68951;SDS011;56000;51.146;17.112;2022-08-21T01:12:45;26.10;;;13.90;;
68951;SDS011;56000;51.146;17.112;2022-08-21T01:15:18;16.60;;;11.70;;
68951;SDS011;56000;51.146;17.112;2022-08-21T01:17:52;16.10;;;10.10;;
68951;SDS011;56000;51.146;17.112;2022-08-21T01:20:26;14.90;;;9.90;;
68951;SDS011;56000;51.146;17.112;2022-08-21T01:23:02;17.90;;;11.10;;
68951;SDS011;56000;51.146;17.112;2022-08-21T01:25:36;14.30;;;9.40;;
68951;SDS011;56000;51.146;17.112;2022-08-21T01:28:12;16.90;;;10.40;;
68951;SDS011;56000;51.146;17.112;2022-08-21T01:30:45;14.40;;;9.00;;
68951;SDS011;56000;51.146;17.112;2022-08-21T01:33:20;11.30;;;8.40;;
68951;SDS011;56000;51.146;17.112;2022-08-21T01:35:55;14.20;;;9.20;;
68951;SDS011;56000;51.146;17.112;2022-08-21T01:38:28;14.80;;;9.40;;
68951;SDS011;56000;51.146;17.112;2022-08-21T01:41:02;11.30;;;8.10;;
68951;SDS011;56000;51.146;17.112;2022-08-21T01:43:35;12.00;;;8.80;;
68951;SDS011;56000;51.146;17.112;2022-08-21T01:46:09;13.50;;;8.40;;
68951;SDS011;56000;51.146;17.112;2022-08-21T01:48:43;14.70;;;8.90;;
68951;SDS011;56000;51.146;17.112;2022-08-21T01:51:16;10.10;;;8.10;;
68951;SDS011;56000;51.146;17.112;2022-08-21T01:53:49;11.80;;;7.80;;
68951;SDS011;56000;51.146;17.112;2022-08-21T01:56:22;9.80;;;6.30;;
68951;SDS011;56000;51.146;17.112;2022-08-21T01:58:55;10.50;;;6.50;;
68951;SDS011;56000;51.146;17.112;2022-08-21T02:01:28;11.20;;;8.40;;
68951;SDS011;56000;51.146;17.112;2022-08-21T02:04:01;11.90;;;7.90;;
68951;SDS011;56000;51.146;17.112;2022-08-21T02:06:34;14.00;;;8.20;;
68951;SDS011;56000;51.146;17.112;2022-08-21T02:09:09;9.60;;;6.40;;
68951;SDS011;56000;51.146;17.112;2022-08-21T02:11:43;9.00;;;6.30;;
68951;SDS011;56000;51.146;17.112;2022-08-21T02:14:16;9.80;;;6.60;;
68951;SDS011;56000;51.146;17.112;2022-08-21T02:17:02;9.70;;;6.10;;
68951;SDS011;56000;51.146;17.112;2022-08-21T02:19:39;9.00;;;6.60;;
68951;SDS011;56000;51.146;17.112;2022-08-21T02:22:11;6.10;;;4.90;;
68951;SDS011;56000;51.146;17.112;2022-08-21T02:24:44;8.40;;;6.00;;
68951;SDS011;56000;51.146;17.112;2022-08-21T02:27:24;5.80;;;4.90;;
68951;SDS011;56000;51.146;17.112;2022-08-21T02:29:58;6.20;;;4.50;;
68951;SDS011;56000;51.146;17.112;2022-08-21T02:32:31;7.40;;;4.60;;
68951;SDS011;56000;51.146;17.112;2022-08-21T02:35:05;7.80;;;4.20;;
68951;SDS011;56000;51.146;17.112;2022-08-21T02:37:45;5.30;;;3.90;;
68951;SDS011;56000;51.146;17.112;2022-08-21T02:40:21;6.80;;;4.10;;
68951;SDS011;56000;51.146;17.112;2022-08-21T02:42:56;4.60;;;4.10;;
68951;SDS011;56000;51.146;17.112;2022-08-21T02:45:30;6.20;;;3.90;;
68951;SDS011;56000;51.146;17.112;2022-08-21T02:48:06;4.50;;;3.20;;
68951;SDS011;56000;51.146;17.112;2022-08-21T02:50:42;3.60;;;3.00;;
68951;SDS011;56000;51.146;17.112;2022-08-21T02:53:17;4.60;;;3.60;;
68951;SDS011;56000;51.146;17.112;2022-08-21T02:55:51;4.20;;;3.40;;
68951;SDS011;56000;51.146;17.112;2022-08-21T02:58:26;5.80;;;3.70;;
68951;SDS011;56000;51.146;17.112;2022-08-21T03:01:01;3.80;;;3.30;;
68951;SDS011;56000;51.146;17.112;2022-08-21T03:03:35;5.80;;;3.20;;
68951;SDS011;56000;51.146;17.112;2022-08-21T03:06:11;3.60;;;2.90;;
68951;SDS011;56000;51.146;17.112;2022-08-21T03:08:46;4.80;;;2.80;;
68951;SDS011;56000;51.146;17.112;2022-08-21T03:11:20;3.80;;;2.70;;
68951;SDS011;56000;51.146;17.112;2022-08-21T03:13:53;3.20;;;2.10;;
68951;SDS011;56000;51.146;17.112;2022-08-21T03:16:26;2.80;;;2.40;;
68951;SDS011;56000;51.146;17.112;2022-08-21T03:19:03;2.60;;;2.20;;
68951;SDS011;56000;51.146;17.112;2022-08-21T03:21:36;3.20;;;2.30;;
68951;SDS011;56000;51.146;17.112;2022-08-21T03:24:09;2.80;;;2.30;;
68951;SDS011;56000;51.146;17.112;2022-08-21T03:26:42;3.00;;;2.70;;
68951;SDS011;56000;51.146;17.112;2022-08-21T03:29:16;3.20;;;2.60;;
68951;SDS011;56000;51.146;17.112;2022-08-21T03:31:48;5.10;;;2.60;;
68951;SDS011;56000;51.146;17.112;2022-08-21T03:34:22;2.90;;;1.90;;
68951;SDS011;56000;51.146;17.112;2022-08-21T03:36:55;3.70;;;2.60;;
68951;SDS011;56000;51.146;17.112;2022-08-21T03:39:28;3.90;;;3.20;;
68951;SDS011;56000;51.146;17.112;2022-08-21T03:42:01;3.60;;;2.70;;
68951;SDS011;56000;51.146;17.112;2022-08-21T03:44:34;5.50;;;3.60;;
68951;SDS011;56000;51.146;17.112;2022-08-21T03:47:07;3.50;;;3.20;;
68951;SDS011;56000;51.146;17.112;2022-08-21T03:49:40;5.10;;;3.60;;
68951;SDS011;56000;51.146;17.112;2022-08-21T03:52:13;3.80;;;3.30;;
68951;SDS011;56000;51.146;17.112;2022-08-21T03:54:47;3.90;;;3.00;;
68951;SDS011;56000;51.146;17.112;2022-08-21T03:57:20;3.90;;;3.10;;
68951;SDS011;56000;51.146;17.112;2022-08-21T03:59:53;5.00;;;3.80;;
68951;SDS011;56000;51.146;17.112;2022-08-21T04:02:26;5.80;;;3.30;;
68951;SDS011;56000;51.146;17.112;2022-08-21T04:04:59;4.40;;;3.80;;
68951;SDS011;56000;51.146;17.112;2022-08-21T04:07:32;4.60;;;3.80;;
68951;SDS011;56000;51.146;17.112;2022-08-21T04:10:07;5.30;;;3.60;;
68951;SDS011;56000;51.146;17.112;2022-08-21T04:12:40;3.80;;;3.50;;
68951;SDS011;56000;51.146;17.112;2022-08-21T04:15:13;4.90;;;3.50;;
68951;SDS011;56000;51.146;17.112;2022-08-21T04:17:46;3.60;;;3.20;;
68951;SDS011;56000;51.146;17.112;2022-08-21T04:20:20;4.10;;;3.20;;
68951;SDS011;56000;51.146;17.112;2022-08-21T04:22:54;3.40;;;3.00;;
68951;SDS011;56000;51.146;17.112;2022-08-21T04:25:28;4.20;;;3.50;;
68951;SDS011;56000;51.146;17.112;2022-08-21T04:28:02;5.50;;;3.70;;
68951;SDS011;56000;51.146;17.112;2022-08-21T04:30:35;4.20;;;3.70;;
68951;SDS011;56000;51.146;17.112;2022-08-21T04:33:08;5.30;;;3.30;;
68951;SDS011;56000;51.146;17.112;2022-08-21T04:35:41;4.90;;;3.20;;
68951;SDS011;56000;51.146;17.112;2022-08-21T04:38:14;4.40;;;2.80;;
68951;SDS011;56000;51.146;17.112;2022-08-21T04:40:48;4.60;;;3.60;;
68951;SDS011;56000;51.146;17.112;2022-08-21T04:43:21;3.90;;;3.00;;
68951;SDS011;56000;51.146;17.112;2022-08-21T04:45:55;3.40;;;2.60;;
68951;SDS011;56000;51.146;17.112;2022-08-21T04:48:28;3.60;;;3.30;;
68951;SDS011;56000;51.146;17.112;2022-08-21T04:51:02;4.70;;;3.50;;
68951;SDS011;56000;51.146;17.112;2022-08-21T04:53:40;3.90;;;3.30;;
68951;SDS011;56000;51.146;17.112;2022-08-21T04:56:18;3.40;;;3.00;;
68951;SDS011;56000;51.146;17.112;2022-08-21T04:58:52;3.40;;;3.10;;
68951;SDS011;56000;51.146;17.112;2022-08-21T05:01:29;4.10;;;3.10;;
68951;SDS011;56000;51.146;17.112;2022-08-21T05:04:04;3.30;;;3.00;;
68951;SDS011;56000;51.146;17.112;2022-08-21T05:06:41;2.90;;;2.50;;
68951;SDS011;56000;51.146;17.112;2022-08-21T05:09:20;3.30;;;3.00;;
68951;SDS011;56000;51.146;17.112;2022-08-21T05:11:54;3.50;;;2.80;;
68951;SDS011;56000;51.146;17.112;2022-08-21T05:14:27;4.20;;;3.30;;
68951;SDS011;56000;51.146;17.112;2022-08-21T05:17:00;5.10;;;2.80;;
68951;SDS011;56000;51.146;17.112;2022-08-21T05:19:34;4.40;;;3.30;;
68951;SDS011;56000;51.146;17.112;2022-08-21T05:22:07;4.30;;;2.90;;
68951;SDS011;56000;51.146;17.112;2022-08-21T05:24:40;3.20;;;2.90;;
68951;SDS011;56000;51.146;17.112;2022-08-21T05:27:13;3.60;;;3.10;;
68951;SDS011;56000;51.146;17.112;2022-08-21T05:29:46;3.60;;;3.20;;
68951;SDS011;56000;51.146;17.112;2022-08-21T05:32:19;4.30;;;2.90;;
68951;SDS011;56000;51.146;17.112;2022-08-21T05:34:52;3.30;;;2.60;;
68951;SDS011;56000;51.146;17.112;2022-08-21T05:37:25;14.80;;;9.10;;
68951;SDS011;56000;51.146;17.112;2022-08-21T05:39:58;4.10;;;3.30;;
68951;SDS011;56000;51.146;17.112;2022-08-21T05:42:52;3.50;;;3.20;;
68951;SDS011;56000;51.146;17.112;2022-08-21T05:45:28;2.50;;;2.30;;
68951;SDS011;56000;51.146;17.112;2022-08-21T05:48:14;2.50;;;2.30;;
68951;SDS011;56000;51.146;17.112;2022-08-21T05:50:50;2.90;;;2.60;;
68951;SDS011;56000;51.146;17.112;2022-08-21T05:53:24;3.00;;;2.70;;
68951;SDS011;56000;51.146;17.112;2022-08-21T05:55:57;3.80;;;2.90;;
68951;SDS011;56000;51.146;17.112;2022-08-21T05:58:30;6.20;;;3.50;;
68951;SDS011;56000;51.146;17.112;2022-08-21T06:01:04;4.30;;;3.20;;
68951;SDS011;56000;51.146;17.112;2022-08-21T06:03:39;5.40;;;2.90;;
68951;SDS011;56000;51.146;17.112;2022-08-21T06:06:12;3.20;;;2.70;;
68951;SDS011;56000;51.146;17.112;2022-08-21T06:08:45;2.60;;;2.20;;
68951;SDS011;56000;51.146;17.112;2022-08-21T06:11:18;2.80;;;2.50;;
68951;SDS011;56000;51.146;17.112;2022-08-21T06:13:57;5.10;;;2.40;;
68951;SDS011;56000;51.146;17.112;2022-08-21T06:16:30;3.20;;;2.60;;
68951;SDS011;56000;51.146;17.112;2022-08-21T06:19:03;2.80;;;2.60;;
68951;SDS011;56000;51.146;17.112;2022-08-21T06:21:36;3.90;;;2.70;;
68951;SDS011;56000;51.146;17.112;2022-08-21T06:24:09;4.60;;;2.80;;
68951;SDS011;56000;51.146;17.112;2022-08-21T06:26:42;4.10;;;2.80;;
68951;SDS011;56000;51.146;17.112;2022-08-21T06:29:16;4.90;;;2.70;;
68951;SDS011;56000;51.146;17.112;2022-08-21T06:31:50;3.50;;;2.90;;
68951;SDS011;56000;51.146;17.112;2022-08-21T06:34:24;5.40;;;3.10;;
68951;SDS011;56000;51.146;17.112;2022-08-21T06:36:57;3.60;;;2.60;;
68951;SDS011;56000;51.146;17.112;2022-08-21T06:39:30;4.00;;;2.70;;
68951;SDS011;56000;51.146;17.112;2022-08-21T06:42:04;3.70;;;3.20;;
68951;SDS011;56000;51.146;17.112;2022-08-21T06:44:39;2.90;;;2.60;;
68951;SDS011;56000;51.146;17.112;2022-08-21T06:47:13;4.50;;;2.80;;
68951;SDS011;56000;51.146;17.112;2022-08-21T06:49:46;10.00;;;3.20;;
68951;SDS011;56000;51.146;17.112;2022-08-21T06:52:18;6.00;;;3.00;;
68951;SDS011;56000;51.146;17.112;2022-08-21T06:54:51;3.90;;;3.20;;
68951;SDS011;56000;51.146;17.112;2022-08-21T06:57:24;7.80;;;3.20;;
68951;SDS011;56000;51.146;17.112;2022-08-21T06:59:57;3.00;;;2.60;;
68951;SDS011;56000;51.146;17.112;2022-08-21T07:02:30;18.00;;;14.10;;
68951;SDS011;56000;51.146;17.112;2022-08-21T07:05:05;17.50;;;14.60;;
68951;SDS011;56000;51.146;17.112;2022-08-21T07:07:46;6.60;;;3.80;;
68951;SDS011;56000;51.146;17.112;2022-08-21T07:10:20;8.20;;;4.20;;
68951;SDS011;56000;51.146;17.112;2022-08-21T07:12:52;8.30;;;4.60;;
68951;SDS011;56000;51.146;17.112;2022-08-21T07:15:30;7.70;;;4.50;;
68951;SDS011;56000;51.146;17.112;2022-08-21T07:18:03;10.30;;;4.10;;
68951;SDS011;56000;51.146;17.112;2022-08-21T07:20:36;5.80;;;4.10;;
68951;SDS011;56000;51.146;17.112;2022-08-21T07:23:11;6.90;;;4.60;;
68951;SDS011;56000;51.146;17.112;2022-08-21T07:25:53;6.40;;;3.40;;
68951;SDS011;56000;51.146;17.112;2022-08-21T07:28:26;6.90;;;4.20;;
68951;SDS011;56000;51.146;17.112;2022-08-21T07:31:00;5.20;;;3.40;;
68951;SDS011;56000;51.146;17.112;2022-08-21T07:33:35;6.60;;;3.20;;
68951;SDS011;56000;51.146;17.112;2022-08-21T07:36:09;13.90;;;3.80;;
68951;SDS011;56000;51.146;17.112;2022-08-21T07:38:42;5.00;;;3.10;;
68951;SDS011;56000;51.146;17.112;2022-08-21T07:41:17;5.70;;;3.20;;
68951;SDS011;56000;51.146;17.112;2022-08-21T07:43:52;4.20;;;2.50;;
68951;SDS011;56000;51.146;17.112;2022-08-21T07:46:25;8.60;;;3.80;;
68951;SDS011;56000;51.146;17.112;2022-08-21T07:48:59;4.80;;;3.00;;
68951;SDS011;56000;51.146;17.112;2022-08-21T07:51:32;9.30;;;4.20;;
68951;SDS011;56000;51.146;17.112;2022-08-21T07:54:05;8.00;;;3.60;;
68951;SDS011;56000;51.146;17.112;2022-08-21T07:56:45;5.40;;;3.60;;
68951;SDS011;56000;51.146;17.112;2022-08-21T07:59:18;10.60;;;4.10;;
68951;SDS011;56000;51.146;17.112;2022-08-21T08:01:52;5.90;;;3.50;;
68951;SDS011;56000;51.146;17.112;2022-08-21T08:04:25;7.50;;;3.80;;
68951;SDS011;56000;51.146;17.112;2022-08-21T08:06:58;7.20;;;3.70;;
68951;SDS011;56000;51.146;17.112;2022-08-21T08:09:31;6.90;;;3.60;;
68951;SDS011;56000;51.146;17.112;2022-08-21T08:12:05;7.60;;;4.10;;
68951;SDS011;56000;51.146;17.112;2022-08-21T08:14:38;7.00;;;3.60;;
68951;SDS011;56000;51.146;17.112;2022-08-21T08:17:11;6.60;;;3.70;;
68951;SDS011;56000;51.146;17.112;2022-08-21T08:19:44;5.40;;;3.70;;
68951;SDS011;56000;51.146;17.112;2022-08-21T08:22:20;4.90;;;3.70;;
68951;SDS011;56000;51.146;17.112;2022-08-21T08:24:54;6.80;;;3.00;;
68951;SDS011;56000;51.146;17.112;2022-08-21T08:27:27;6.90;;;3.40;;
68951;SDS011;56000;51.146;17.112;2022-08-21T08:30:00;6.00;;;3.30;;
68951;SDS011;56000;51.146;17.112;2022-08-21T08:32:33;5.10;;;3.10;;
68951;SDS011;56000;51.146;17.112;2022-08-21T08:35:08;7.00;;;3.20;;
68951;SDS011;56000;51.146;17.112;2022-08-21T08:37:42;5.20;;;3.40;;
68951;SDS011;56000;51.146;17.112;2022-08-21T08:40:25;6.60;;;3.60;;
68951;SDS011;56000;51.146;17.112;2022-08-21T08:43:03;4.70;;;2.90;;
68951;SDS011;56000;51.146;17.112;2022-08-21T08:45:38;5.20;;;2.80;;
68951;SDS011;56000;51.146;17.112;2022-08-21T08:48:18;5.60;;;3.20;;
68951;SDS011;56000;51.146;17.112;2022-08-21T08:51:03;3.80;;;2.90;;
68951;SDS011;56000;51.146;17.112;2022-08-21T08:53:46;3.30;;;2.80;;
68951;SDS011;56000;51.146;17.112;2022-08-21T08:56:30;5.70;;;3.00;;
68951;SDS011;56000;51.146;17.112;2022-08-21T08:59:08;4.30;;;3.10;;
68951;SDS011;56000;51.146;17.112;2022-08-21T09:01:46;3.90;;;2.50;;
68951;SDS011;56000;51.146;17.112;2022-08-21T09:04:24;3.10;;;2.50;;
68951;SDS011;56000;51.146;17.112;2022-08-21T09:07:04;4.70;;;2.70;;
68951;SDS011;56000;51.146;17.112;2022-08-21T09:09:55;3.20;;;2.40;;
68951;SDS011;56000;51.146;17.112;2022-08-21T09:12:43;3.10;;;2.40;;
68951;SDS011;56000;51.146;17.112;2022-08-21T09:15:29;5.40;;;2.50;;
68951;SDS011;56000;51.146;17.112;2022-08-21T09:18:16;3.80;;;2.40;;
68951;SDS011;56000;51.146;17.112;2022-08-21T09:21:09;4.00;;;2.50;;
68951;SDS011;56000;51.146;17.112;2022-08-21T09:23:55;3.50;;;2.20;;
68951;SDS011;56000;51.146;17.112;2022-08-21T09:26:40;3.40;;;2.00;;
68951;SDS011;56000;51.146;17.112;2022-08-21T09:29:21;2.80;;;2.10;;
68951;SDS011;56000;51.146;17.112;2022-08-21T09:31:59;3.20;;;2.10;;
68951;SDS011;56000;51.146;17.112;2022-08-21T09:34:33;3.90;;;2.20;;
68951;SDS011;56000;51.146;17.112;2022-08-21T09:37:14;3.50;;;2.20;;
68951;SDS011;56000;51.146;17.112;2022-08-21T09:39:49;4.00;;;2.40;;
68951;SDS011;56000;51.146;17.112;2022-08-21T09:42:27;4.00;;;2.30;;
68951;SDS011;56000;51.146;17.112;2022-08-21T09:45:10;3.00;;;2.20;;
68951;SDS011;56000;51.146;17.112;2022-08-21T09:47:45;2.90;;;2.40;;
68951;SDS011;56000;51.146;17.112;2022-08-21T09:50:20;3.20;;;2.30;;
68951;SDS011;56000;51.146;17.112;2022-08-21T09:52:56;3.00;;;2.00;;
68951;SDS011;56000;51.146;17.112;2022-08-21T09:55:37;6.50;;;2.30;;
68951;SDS011;56000;51.146;17.112;2022-08-21T09:58:37;2.70;;;2.10;;
68951;SDS011;56000;51.146;17.112;2022-08-21T10:01:17;8.70;;;2.40;;
68951;SDS011;56000;51.146;17.112;2022-08-21T10:04:04;3.30;;;2.30;;
68951;SDS011;56000;51.146;17.112;2022-08-21T10:06:39;3.80;;;2.40;;
68951;SDS011;56000;51.146;17.112;2022-08-21T10:09:15;3.90;;;2.50;;
68951;SDS011;56000;51.146;17.112;2022-08-21T10:11:58;2.90;;;2.40;;
68951;SDS011;56000;51.146;17.112;2022-08-21T10:14:48;5.00;;;2.60;;
68951;SDS011;56000;51.146;17.112;2022-08-21T10:17:41;3.50;;;2.40;;
68951;SDS011;56000;51.146;17.112;2022-08-21T10:20:25;2.90;;;2.20;;
68951;SDS011;56000;51.146;17.112;2022-08-21T10:23:20;3.80;;;2.30;;
68951;SDS011;56000;51.146;17.112;2022-08-21T10:26:09;5.30;;;2.50;;
68951;SDS011;56000;51.146;17.112;2022-08-21T10:28:51;4.70;;;2.50;;
68951;SDS011;56000;51.146;17.112;2022-08-21T10:31:31;3.50;;;2.40;;
68951;SDS011;56000;51.146;17.112;2022-08-21T10:34:15;7.20;;;2.80;;
68951;SDS011;56000;51.146;17.112;2022-08-21T10:37:07;4.10;;;2.70;;
68951;SDS011;56000;51.146;17.112;2022-08-21T10:39:52;21.30;;;17.20;;
68951;SDS011;56000;51.146;17.112;2022-08-21T10:42:38;5.90;;;3.10;;
68951;SDS011;56000;51.146;17.112;2022-08-21T10:45:30;4.50;;;2.40;;
68951;SDS011;56000;51.146;17.112;2022-08-21T10:48:18;4.00;;;2.30;;
68951;SDS011;56000;51.146;17.112;2022-08-21T10:51:06;4.80;;;2.20;;
68951;SDS011;56000;51.146;17.112;2022-08-21T10:53:55;6.00;;;2.50;;
68951;SDS011;56000;51.146;17.112;2022-08-21T10:56:35;3.40;;;2.30;;
68951;SDS011;56000;51.146;17.112;2022-08-21T10:59:23;4.20;;;2.30;;
68951;SDS011;56000;51.146;17.112;2022-08-21T11:02:11;3.70;;;2.30;;
68951;SDS011;56000;51.146;17.112;2022-08-21T11:04:52;3.10;;;2.30;;
68951;SDS011;56000;51.146;17.112;2022-08-21T11:07:33;5.30;;;2.40;;
68951;SDS011;56000;51.146;17.112;2022-08-21T11:10:13;7.30;;;2.80;;
68951;SDS011;56000;51.146;17.112;2022-08-21T11:12:54;4.50;;;2.60;;
68951;SDS011;56000;51.146;17.112;2022-08-21T11:15:36;5.30;;;2.80;;
68951;SDS011;56000;51.146;17.112;2022-08-21T11:18:21;4.30;;;2.40;;
68951;SDS011;56000;51.146;17.112;2022-08-21T11:21:04;4.80;;;2.60;;
68951;SDS011;56000;51.146;17.112;2022-08-21T11:23:50;6.20;;;2.60;;
68951;SDS011;56000;51.146;17.112;2022-08-21T11:26:32;4.80;;;2.60;;
68951;SDS011;56000;51.146;17.112;2022-08-21T11:29:13;7.40;;;2.70;;
68951;SDS011;56000;51.146;17.112;2022-08-21T11:31:59;5.60;;;2.60;;
68951;SDS011;56000;51.146;17.112;2022-08-21T11:34:50;9.20;;;3.00;;
68951;SDS011;56000;51.146;17.112;2022-08-21T11:37:42;4.80;;;2.40;;
68951;SDS011;56000;51.146;17.112;2022-08-21T11:40:26;7.00;;;2.50;;
68951;SDS011;56000;51.146;17.112;2022-08-21T11:43:15;5.70;;;2.40;;
68951;SDS011;56000;51.146;17.112;2022-08-21T11:45:54;6.10;;;2.40;;
68951;SDS011;56000;51.146;17.112;2022-08-21T11:48:43;6.70;;;3.00;;
68951;SDS011;56000;51.146;17.112;2022-08-21T11:51:28;5.20;;;2.70;;
68951;SDS011;56000;51.146;17.112;2022-08-21T11:54:14;7.20;;;3.20;;
68951;SDS011;56000;51.146;17.112;2022-08-21T11:56:55;6.80;;;2.80;;
68951;SDS011;56000;51.146;17.112;2022-08-21T11:59:35;6.10;;;2.80;;
68951;SDS011;56000;51.146;17.112;2022-08-21T12:02:14;7.10;;;3.20;;
68951;SDS011;56000;51.146;17.112;2022-08-21T12:04:52;4.60;;;3.00;;
68951;SDS011;56000;51.146;17.112;2022-08-21T12:07:34;4.70;;;2.90;;
68951;SDS011;56000;51.146;17.112;2022-08-21T12:10:11;5.70;;;2.90;;
68951;SDS011;56000;51.146;17.112;2022-08-21T12:12:45;4.60;;;2.50;;
68951;SDS011;56000;51.146;17.112;2022-08-21T12:15:26;4.90;;;3.10;;
68951;SDS011;56000;51.146;17.112;2022-08-21T12:18:01;5.90;;;3.10;;
68951;SDS011;56000;51.146;17.112;2022-08-21T12:20:45;5.80;;;3.00;;
68951;SDS011;56000;51.146;17.112;2022-08-21T12:23:32;4.70;;;2.80;;
68951;SDS011;56000;51.146;17.112;2022-08-21T12:26:29;6.90;;;3.20;;
68951;SDS011;56000;51.146;17.112;2022-08-21T12:29:23;5.10;;;3.40;;
68951;SDS011;56000;51.146;17.112;2022-08-21T12:32:00;5.70;;;2.70;;
68951;SDS011;56000;51.146;17.112;2022-08-21T12:34:37;6.60;;;3.30;;
68951;SDS011;56000;51.146;17.112;2022-08-21T12:37:17;5.90;;;2.90;;
68951;SDS011;56000;51.146;17.112;2022-08-21T12:39:57;7.40;;;3.60;;
68951;SDS011;56000;51.146;17.112;2022-08-21T12:42:37;5.80;;;3.00;;
68951;SDS011;56000;51.146;17.112;2022-08-21T12:45:30;7.70;;;3.00;;
68951;SDS011;56000;51.146;17.112;2022-08-21T12:48:09;8.30;;;3.30;;
68951;SDS011;56000;51.146;17.112;2022-08-21T12:50:49;7.50;;;3.00;;
68951;SDS011;56000;51.146;17.112;2022-08-21T12:53:29;6.90;;;3.30;;
68951;SDS011;56000;51.146;17.112;2022-08-21T12:56:09;5.80;;;3.00;;
68951;SDS011;56000;51.146;17.112;2022-08-21T12:58:47;4.40;;;2.80;;
68951;SDS011;56000;51.146;17.112;2022-08-21T13:01:27;3.80;;;2.50;;
68951;SDS011;56000;51.146;17.112;2022-08-21T13:04:13;7.30;;;3.10;;
68951;SDS011;56000;51.146;17.112;2022-08-21T13:06:51;7.00;;;3.10;;
68951;SDS011;56000;51.146;17.112;2022-08-21T13:09:28;6.50;;;3.70;;
68951;SDS011;56000;51.146;17.112;2022-08-21T13:12:06;3.80;;;2.90;;
68951;SDS011;56000;51.146;17.112;2022-08-21T13:14:41;5.30;;;3.10;;
68951;SDS011;56000;51.146;17.112;2022-08-21T13:17:18;8.20;;;3.50;;
68951;SDS011;56000;51.146;17.112;2022-08-21T13:20:00;8.60;;;3.50;;
68951;SDS011;56000;51.146;17.112;2022-08-21T13:22:42;10.10;;;3.40;;
68951;SDS011;56000;51.146;17.112;2022-08-21T13:25:17;7.30;;;3.30;;
68951;SDS011;56000;51.146;17.112;2022-08-21T13:28:00;4.70;;;3.10;;
68951;SDS011;56000;51.146;17.112;2022-08-21T13:30:40;9.90;;;3.30;;
68951;SDS011;56000;51.146;17.112;2022-08-21T13:33:15;8.60;;;3.50;;
68951;SDS011;56000;51.146;17.112;2022-08-21T13:36:02;5.70;;;3.00;;
68951;SDS011;56000;51.146;17.112;2022-08-21T13:38:41;6.40;;;3.10;;
68951;SDS011;56000;51.146;17.112;2022-08-21T13:41:21;10.10;;;3.90;;
68951;SDS011;56000;51.146;17.112;2022-08-21T13:44:01;11.40;;;3.70;;
68951;SDS011;56000;51.146;17.112;2022-08-21T13:46:36;9.40;;;3.80;;
68951;SDS011;56000;51.146;17.112;2022-08-21T13:49:10;5.30;;;2.90;;
68951;SDS011;56000;51.146;17.112;2022-08-21T13:51:45;8.70;;;3.30;;
68951;SDS011;56000;51.146;17.112;2022-08-21T13:54:25;7.50;;;3.50;;
68951;SDS011;56000;51.146;17.112;2022-08-21T13:57:00;8.40;;;3.50;;
68951;SDS011;56000;51.146;17.112;2022-08-21T13:59:35;5.90;;;3.60;;
68951;SDS011;56000;51.146;17.112;2022-08-21T14:02:13;6.80;;;3.70;;
68951;SDS011;56000;51.146;17.112;2022-08-21T14:04:58;5.30;;;3.10;;
68951;SDS011;56000;51.146;17.112;2022-08-21T14:07:36;8.30;;;3.90;;
68951;SDS011;56000;51.146;17.112;2022-08-21T14:10:16;8.20;;;3.30;;
68951;SDS011;56000;51.146;17.112;2022-08-21T14:12:52;6.30;;;3.70;;
68951;SDS011;56000;51.146;17.112;2022-08-21T14:15:30;6.50;;;3.70;;
68951;SDS011;56000;51.146;17.112;2022-08-21T14:18:15;5.30;;;3.50;;
68951;SDS011;56000;51.146;17.112;2022-08-21T14:20:49;5.80;;;3.40;;
68951;SDS011;56000;51.146;17.112;2022-08-21T14:23:28;9.40;;;3.60;;
68951;SDS011;56000;51.146;17.112;2022-08-21T14:26:03;7.20;;;3.50;;
68951;SDS011;56000;51.146;17.112;2022-08-21T14:28:39;6.30;;;3.50;;
68951;SDS011;56000;51.146;17.112;2022-08-21T14:31:18;8.20;;;4.10;;
68951;SDS011;56000;51.146;17.112;2022-08-21T14:33:52;6.80;;;3.60;;
68951;SDS011;56000;51.146;17.112;2022-08-21T14:36:25;8.90;;;4.80;;
68951;SDS011;56000;51.146;17.112;2022-08-21T14:38:58;8.10;;;3.70;;
68951;SDS011;56000;51.146;17.112;2022-08-21T14:41:31;9.70;;;3.90;;
68951;SDS011;56000;51.146;17.112;2022-08-21T14:44:04;9.60;;;3.60;;
68951;SDS011;56000;51.146;17.112;2022-08-21T14:46:38;5.30;;;4.00;;
68951;SDS011;56000;51.146;17.112;2022-08-21T14:49:27;5.60;;;3.60;;
68951;SDS011;56000;51.146;17.112;2022-08-21T14:52:00;6.60;;;4.00;;
68951;SDS011;56000;51.146;17.112;2022-08-21T14:54:33;6.40;;;3.90;;
68951;SDS011;56000;51.146;17.112;2022-08-21T14:57:08;6.60;;;3.70;;
68951;SDS011;56000;51.146;17.112;2022-08-21T14:59:42;6.70;;;4.00;;
68951;SDS011;56000;51.146;17.112;2022-08-21T15:02:15;5.70;;;4.10;;
68951;SDS011;56000;51.146;17.112;2022-08-21T15:04:48;5.90;;;4.50;;
68951;SDS011;56000;51.146;17.112;2022-08-21T15:07:21;5.30;;;4.20;;
68951;SDS011;56000;51.146;17.112;2022-08-21T15:09:54;6.20;;;3.80;;
68951;SDS011;56000;51.146;17.112;2022-08-21T15:12:26;12.50;;;3.80;;
68951;SDS011;56000;51.146;17.112;2022-08-21T15:14:59;11.20;;;4.30;;
68951;SDS011;56000;51.146;17.112;2022-08-21T15:17:33;5.30;;;4.20;;
68951;SDS011;56000;51.146;17.112;2022-08-21T15:20:10;6.50;;;4.50;;
68951;SDS011;56000;51.146;17.112;2022-08-21T15:22:44;5.00;;;3.90;;
68951;SDS011;56000;51.146;17.112;2022-08-21T15:25:19;5.60;;;3.70;;
68951;SDS011;56000;51.146;17.112;2022-08-21T15:27:52;5.90;;;4.10;;